Portada
METAR-TAF:

METAR-TAF

Aeroports :

Memanbetsu, Japó

latitud: 43-53N, longitud: 144-10E, altitud: 33 m

Observació

L'informe es va fer fa 11 minuts, a les 10:00 UTC
Vent 3 kt del Nord-Oest, variant entre Oest/Sud-Oest i Nord
Temperatura -7°C
Humitat 73%
Pressió 1029 hPa
Visibilitat 10 km o més
Escasses núvols a una alçada de 1500 ft
Núvols disperses a una alçada de 2000 ft
Cel ennuvolat a una alçada de 4000 ft
xàfecs de neu

METAR: RJCM 271000Z 31003KT 250V360 9999 -SHSN FEW015 SCT020 BKN040 M07/M11 Q1029

Hora: 19:11 (10:11 UTC)

Pronòstic

L'informe es va fer fa 5 hores i 0 minuts, a les 05:11 UTC
Pronòstic vàlid del 27 a les 06 UTC al 28 a les 12 UTC
Vent 10 kt del Nord/Nord-Oest
Visibilitat 10 km o més
Escasses núvols a una alçada de 1000 ft
Cel ennuvolat a una alçada de 3000 ft
Evolucionant progressivament
l' 27 a les 09 UTC al 27 a les 11 UTC
Vent 6 kt del Sud/Sud-Oest

TAF: RJCM 270511Z 2706/2812 34010KT 9999 FEW010 BKN030 BECMG 2709/2711 20006KT

Observacions i pronòstics meteorològics de més de 4000 aeroports (METAR i TAF).

Les estacions disponibles són els punts grocs i vermells al mapa.

Posi el ratolí al punt desitjat per veure el nom de l'estació.

Feu clic per veure les observacions i els pronòstics meteorològics.

Per canviar el mapa: feu clic els botons verds amb una creu de color negre per apropar; al botó verd amb un guió per allunyar la imatge; o en les fletxes verdes per a mapes adjacents.


METAR-TAF: